CheckWX is a tool to help pilots better visualize weather data.  It is not intended as a substitute for an official pre-flight weather briefing.

06:34:19 UTC

KCHS METAR
Charleston AFB / Intl Airport
Charleston, South Carolina, USA
Current

38 mins ago

KCHS 230556Z 20003KT 10SM CLR 15/12 A3014 RMK AO2 SLP207 T01500122 10178 20150 58004
Observed
Apr-23 @ 05:56 UTC
Wind
  • 200° at 3 KTS
Visibility
10 SM
Flight Rules
VFR
Cloud Levels
  • Clear skies
Temperature
15°C / 59°F
Dewpoint
12°C / 54°F
Humidity
82%
Altimeter
30.14" Hg
Pressure
1020.62 hPa
Previous

2 hours ago

KCHS 230456Z 00000KT 10SM CLR 16/12 A3016 RMK AO2 SLP211 T01560117 402560083
Observed
Apr-23 @ 04:56 UTC
Visibility
10 SM
Flight Rules
VFR
Cloud Levels
  • Clear skies
Temperature
16°C / 61°F
Dewpoint
12°C / 54°F
Humidity
77%
Altimeter
30.16" Hg
Pressure
1021.32 hPa
Previous

3 hours ago

KCHS 230356Z 00000KT 10SM CLR 16/12 A3016 RMK AO2 SLP212 T01560117
Observed
Apr-23 @ 03:56 UTC
Visibility
10 SM
Flight Rules
VFR
Cloud Levels
  • Clear skies
Temperature
16°C / 61°F
Dewpoint
12°C / 54°F
Humidity
77%
Altimeter
30.16" Hg
Pressure
1021.32 hPa